Time,TemperatureF,DewpointF,PressureIn,WindDirection,WindDirectionDegrees,WindSpeedMPH,WindSpeedGustMPH,Humidity,HourlyPrecipIn,Conditions,Clouds,dailyrainin,SoftwareType,DateUTC
2013-02-02 00:09:00,9.2,-0.9,30.54,NNW,333,7.0,17.0,63,0.00,,,0.00,Wunderground v.1.15,2013-02-02 05:09:00,
2013-02-02 00:19:00,9.2,-0.9,30.55,NW,319,6.0,17.0,63,0.00,,,0.00,Wunderground v.1.15,2013-02-02 05:19:00,
2013-02-02 00:24:00,9.2,-0.9,30.55,NW,310,4.0,17.0,63,0.00,,,0.00,Wunderground v.1.15,2013-02-02 05:24:00,
2013-02-02 00:34:00,9.0,-1.1,30.54,WNW,289,5.0,17.0,63,0.00,,,0.00,Wunderground v.1.15,2013-02-02 05:34:00,
2013-02-02 00:44:00,9.0,-1.1,30.54,NW,315,4.0,17.0,63,0.00,,,0.00,Wunderground v.1.15,2013-02-02 05:44:00,
2013-02-02 00:49:00,8.8,-0.9,30.54,NW,315,4.0,17.0,64,0.00,,,0.00,Wunderground v.1.15,2013-02-02 05:49:00,
2013-02-02 00:59:00,8.6,-1.1,30.54,NW,316,5.0,5.0,64,0.00,,,0.00,Wunderground v.1.15,2013-02-02 05:59:00,
2013-02-02 01:09:00,8.4,-1.3,30.53,NW,317,5.0,20.0,64,0.00,,,0.00,Wunderground v.1.15,2013-02-02 06:09:00,
2013-02-02 01:19:00,8.8,-0.9,30.53,NW,315,7.0,7.0,64,0.00,,,0.00,Wunderground v.1.15,2013-02-02 06:19:00,
2013-02-02 01:29:00,8.3,-1.4,30.53,NW,325,6.0,6.0,64,0.00,,,0.00,Wunderground v.1.15,2013-02-02 06:29:00,
2013-02-02 01:34:00,8.4,-1.3,30.53,NW,325,5.0,20.0,64,0.00,,,0.00,Wunderground v.1.15,2013-02-02 06:34:00,
2013-02-02 01:44:00,8.6,-1.1,30.53,WNW,294,5.0,20.0,64,0.00,,,0.00,Wunderground v.1.15,2013-02-02 06:44:00,
2013-02-02 01:54:00,8.6,-1.1,30.53,NW,323,5.0,5.0,64,0.00,,,0.00,Wunderground v.1.15,2013-02-02 06:54:00,
2013-02-02 01:59:00,8.6,-1.1,30.53,NW,323,4.0,13.0,64,0.00,,,0.00,Wunderground v.1.15,2013-02-02 06:59:00,
2013-02-02 02:19:00,8.4,-1.3,30.52,NW,326,4.0,4.0,64,0.00,,,0.00,Wunderground v.1.15,2013-02-02 07:19:00,
2013-02-02 02:29:00,8.6,-1.1,30.52,NW,326,4.0,4.0,64,0.00,,,0.00,Wunderground v.1.15,2013-02-02 07:29:00,
2013-02-02 02:39:00,8.6,-1.1,30.52,NW,326,2.0,2.0,64,0.00,,,0.00,Wunderground v.1.15,2013-02-02 07:39:00,
2013-02-02 02:54:00,9.2,-1.2,30.52,NW,326,1.0,1.0,62,0.00,,,0.00,Wunderground v.1.15,2013-02-02 07:54:00,
2013-02-02 03:09:00,9.5,-1.3,30.52,NW,326,1.0,10.0,61,0.00,,,0.00,Wunderground v.1.15,2013-02-02 08:09:00,
2013-02-02 03:19:00,9.5,-1.3,30.51,NW,326,1.0,1.0,61,0.00,,,0.00,Wunderground v.1.15,2013-02-02 08:19:00,
2013-02-02 03:29:00,9.9,-1.2,30.51,NW,326,1.0,10.0,60,0.00,,,0.00,Wunderground v.1.15,2013-02-02 08:29:00,
2013-02-02 03:34:00,10.0,-1.1,30.50,NW,326,2.0,10.0,60,0.00,,,0.00,Wunderground v.1.15,2013-02-02 08:34:00,
2013-02-02 03:44:00,10.0,-1.1,30.50,NW,323,2.0,2.0,60,0.00,,,0.00,Wunderground v.1.15,2013-02-02 08:44:00,
2013-02-02 03:59:00,10.0,-1.1,30.50,NW,318,3.0,3.0,60,0.00,,,0.00,Wunderground v.1.15,2013-02-02 08:59:00,
2013-02-02 04:09:00,10.0,-1.1,30.50,NW,318,1.0,6.0,60,0.00,,,0.00,Wunderground v.1.15,2013-02-02 09:09:00,
2013-02-02 04:19:00,9.9,-1.2,30.50,NW,318,2.0,6.0,60,0.00,,,0.00,Wunderground v.1.15,2013-02-02 09:19:00,
2013-02-02 04:24:00,10.0,-1.1,30.50,NW,318,2.0,6.0,60,0.00,,,0.00,Wunderground v.1.15,2013-02-02 09:24:00,
2013-02-02 04:34:00,10.2,-0.9,30.49,NW,316,2.0,2.0,60,0.00,,,0.00,Wunderground v.1.15,2013-02-02 09:34:00,
2013-02-02 04:49:00,10.4,-0.8,30.49,NW,316,2.0,2.0,60,0.00,,,0.00,Wunderground v.1.15,2013-02-02 09:49:00,
2013-02-02 04:59:00,10.5,-0.7,30.49,WNW,283,2.0,2.0,60,0.00,,,0.00,Wunderground v.1.15,2013-02-02 09:59:00,
2013-02-02 05:09:00,10.5,-0.7,30.50,WNW,283,1.0,6.0,60,0.00,,,0.00,Wunderground v.1.15,2013-02-02 10:09:00,
2013-02-02 05:19:00,10.9,-0.3,30.49,West,280,2.0,2.0,60,0.00,,,0.00,Wunderground v.1.15,2013-02-02 10:19:00,
2013-02-02 05:34:00,11.1,0.3,30.48,NW,310,3.0,3.0,61,0.00,,,0.00,Wunderground v.1.15,2013-02-02 10:34:00,
2013-02-02 05:44:00,11.2,0.7,30.48,NW,306,3.0,6.0,62,0.00,,,0.00,Wunderground v.1.15,2013-02-02 10:44:00,
2013-02-02 05:54:00,11.2,0.7,30.48,NW,306,2.0,2.0,62,0.00,,,0.00,Wunderground v.1.15,2013-02-02 10:54:00,
2013-02-02 05:59:00,11.4,0.9,30.48,NW,306,1.0,12.0,62,0.00,,,0.00,Wunderground v.1.15,2013-02-02 10:59:00,
2013-02-02 06:19:00,11.9,1.0,30.49,NW,308,2.0,12.0,61,0.00,,,0.00,Wunderground v.1.15,2013-02-02 11:19:00,
2013-02-02 06:29:00,11.9,1.0,30.49,NW,308,0.0,12.0,61,0.00,,,0.00,Wunderground v.1.15,2013-02-02 11:29:00,
2013-02-02 06:48:00,11.9,1.4,30.48,NW,308,0.0,12.0,62,0.00,,,0.00,Wunderground v.1.15,2013-02-02 11:48:00,
2013-02-02 06:53:00,11.9,1.4,30.48,NW,308,0.0,12.0,62,0.00,,,0.00,Wunderground v.1.15,2013-02-02 11:53:00,
2013-02-02 07:08:00,11.9,1.7,30.48,NW,308,0.0,9.0,63,0.00,,,0.00,Wunderground v.1.15,2013-02-02 12:08:00,
2013-02-02 07:13:00,11.9,1.4,30.48,NW,308,0.0,9.0,62,0.00,,,0.00,Wunderground v.1.15,2013-02-02 12:13:00,
2013-02-02 07:23:00,11.9,1.7,30.48,NW,308,1.0,1.0,63,0.00,,,0.00,Wunderground v.1.15,2013-02-02 12:23:00,
2013-02-02 07:33:00,12.1,1.9,30.48,NW,308,0.0,9.0,63,0.00,,,0.00,Wunderground v.1.15,2013-02-02 12:33:00,
2013-02-02 07:38:00,12.1,1.9,30.48,NW,308,0.0,9.0,63,0.00,,,0.00,Wunderground v.1.15,2013-02-02 12:38:00,
2013-02-02 07:48:00,12.1,1.6,30.48,NW,308,0.0,9.0,62,0.00,,,0.00,Wunderground v.1.15,2013-02-02 12:48:00,
2013-02-02 07:53:00,12.1,1.2,30.48,NW,308,0.0,9.0,61,0.00,,,0.00,Wunderground v.1.15,2013-02-02 12:53:00,
2013-02-02 08:08:00,13.1,2.2,30.47,NW,308,1.0,1.0,61,0.00,,,0.00,Wunderground v.1.15,2013-02-02 13:08:00,
2013-02-02 08:23:00,14.8,2.7,30.46,NW,308,1.0,1.0,58,0.00,,,0.00,Wunderground v.1.15,2013-02-02 13:23:00,
2013-02-02 08:28:00,15.1,3.3,30.46,NW,308,1.0,5.0,59,0.00,,,0.00,Wunderground v.1.15,2013-02-02 13:28:00,
2013-02-02 08:38:00,15.6,3.1,30.46,NW,308,0.0,5.0,57,0.00,,,0.00,Wunderground v.1.15,2013-02-02 13:38:00,
2013-02-02 08:48:00,15.9,3.0,30.45,NW,308,2.0,5.0,56,0.00,,,0.00,Wunderground v.1.15,2013-02-02 13:48:00,
2013-02-02 08:53:00,15.9,2.6,30.45,NW,308,2.0,6.0,55,0.00,,,0.00,Wunderground v.1.15,2013-02-02 13:53:00,
2013-02-02 09:13:00,16.9,3.5,30.44,NW,308,2.0,6.0,55,0.00,,,0.00,Wunderground v.1.15,2013-02-02 14:13:00,
2013-02-02 09:23:00,17.2,3.4,30.43,NW,308,2.0,6.0,54,0.00,,,0.00,Wunderground v.1.15,2013-02-02 14:23:00,
2013-02-02 09:38:00,18.0,3.3,30.43,East,101,3.0,3.0,52,0.00,,,0.00,Wunderground v.1.15,2013-02-02 14:38:00,
2013-02-02 09:48:00,18.1,3.4,30.43,ESE,111,3.0,6.0,52,0.00,,,0.00,Wunderground v.1.15,2013-02-02 14:48:00,
2013-02-02 10:13:00,18.8,4.1,30.42,ESE,112,3.0,3.0,52,0.00,,,0.00,Wunderground v.1.15,2013-02-02 15:13:00,
2013-02-02 10:18:00,19.1,4.8,30.41,ESE,112,3.0,10.0,53,0.00,,,0.00,Wunderground v.1.15,2013-02-02 15:18:00,
2013-02-02 10:23:00,19.4,4.2,30.41,ESE,112,3.0,10.0,51,0.00,,,0.00,Wunderground v.1.15,2013-02-02 15:23:00,
2013-02-02 10:33:00,19.5,3.4,30.40,ESE,113,3.0,10.0,49,0.00,,,0.00,Wunderground v.1.15,2013-02-02 15:33:00,
2013-02-02 10:43:00,20.3,5.0,30.40,ESE,113,2.0,2.0,51,0.00,,,0.00,Wunderground v.1.15,2013-02-02 15:43:00,
2013-02-02 10:48:00,20.8,4.2,30.39,ESE,113,2.0,10.0,48,0.00,,,0.00,Wunderground v.1.15,2013-02-02 15:48:00,
2013-02-02 10:58:00,21.1,4.4,30.39,ESE,113,2.0,9.0,48,0.00,,,0.00,Wunderground v.1.15,2013-02-02 15:58:00,
2013-02-02 11:08:00,21.4,5.2,30.39,ESE,113,2.0,2.0,49,0.00,,,0.00,Wunderground v.1.15,2013-02-02 16:08:00,
2013-02-02 11:18:00,21.9,4.3,30.37,ESE,113,2.0,9.0,46,0.00,,,0.00,Wunderground v.1.15,2013-02-02 16:18:00,
2013-02-02 11:28:00,22.1,5.4,30.37,ESE,113,1.0,9.0,48,0.00,,,0.00,Wunderground v.1.15,2013-02-02 16:28:00,
2013-02-02 11:33:00,22.1,4.9,30.36,ESE,113,1.0,9.0,47,0.00,,,0.00,Wunderground v.1.15,2013-02-02 16:33:00,
2013-02-02 11:43:00,23.0,7.1,30.36,ESE,113,1.0,9.0,50,0.00,,,0.00,Wunderground v.1.15,2013-02-02 16:43:00,
2013-02-02 11:58:00,22.7,6.4,30.35,ESE,113,4.0,4.0,49,0.00,,,0.00,Wunderground v.1.15,2013-02-02 16:58:00,
2013-02-02 12:18:00,23.3,5.5,30.32,ESE,113,4.0,5.0,46,0.00,,,0.00,Wunderground v.1.15,2013-02-02 17:18:00,
2013-02-02 12:28:00,22.9,5.6,30.32,ESE,117,5.0,5.0,47,0.00,,,0.00,Wunderground v.1.15,2013-02-02 17:28:00,
2013-02-02 12:33:00,22.9,6.6,30.31,ESE,119,4.0,5.0,49,0.00,,,0.00,Wunderground v.1.15,2013-02-02 17:33:00,
2013-02-02 12:43:00,23.3,6.0,30.31,ESE,120,4.0,5.0,47,0.00,,,0.00,Wunderground v.1.15,2013-02-02 17:43:00,
2013-02-02 12:58:00,23.5,6.2,30.30,ESE,123,4.0,9.0,47,0.00,,,0.00,Wunderground v.1.15,2013-02-02 17:58:00,
2013-02-02 13:08:00,23.6,7.2,30.29,ESE,123,5.0,5.0,49,0.00,,,0.00,Wunderground v.1.15,2013-02-02 18:08:00,
2013-02-02 13:18:00,23.6,4.8,30.29,ESE,123,4.0,9.0,44,0.00,,,0.00,Wunderground v.1.15,2013-02-02 18:18:00,
2013-02-02 13:33:00,23.8,6.5,30.29,ESE,123,4.0,4.0,47,0.00,,,0.00,Wunderground v.1.15,2013-02-02 18:33:00,
2013-02-02 13:43:00,23.9,6.6,30.29,ESE,123,3.0,3.0,47,0.00,,,0.00,Wunderground v.1.15,2013-02-02 18:43:00,
2013-02-02 13:58:00,24.1,7.2,30.28,ESE,123,1.0,10.0,48,0.00,,,0.00,Wunderground v.1.15,2013-02-02 18:58:00,
2013-02-02 14:08:00,24.2,7.3,30.27,ESE,123,2.0,10.0,48,0.00,,,0.00,Wunderground v.1.15,2013-02-02 19:08:00,
2013-02-02 14:18:00,24.7,8.2,30.25,ESE,123,2.0,2.0,49,0.00,,,0.00,Wunderground v.1.15,2013-02-02 19:18:00,
2013-02-02 14:33:00,26.4,10.3,30.24,ESE,123,1.0,10.0,50,0.00,,,0.00,Wunderground v.1.15,2013-02-02 19:33:00,
2013-02-02 14:38:00,27.3,13.7,30.24,ESE,123,2.0,10.0,56,0.00,,,0.00,Wunderground v.1.15,2013-02-02 19:38:00,
2013-02-02 14:48:00,27.5,10.4,30.22,ESE,115,6.0,6.0,48,0.00,,,0.00,Wunderground v.1.15,2013-02-02 19:48:00,
2013-02-02 15:28:00,26.7,11.0,30.21,ESE,122,3.0,3.0,51,0.00,,,0.00,Wunderground v.1.15,2013-02-02 20:28:00,
2013-02-02 15:38:00,26.9,11.2,30.20,ESE,122,4.0,14.0,51,0.00,,,0.00,Wunderground v.1.15,2013-02-02 20:38:00,
2013-02-02 15:48:00,26.7,11.8,30.19,ESE,122,2.0,14.0,53,0.00,,,0.00,Wunderground v.1.15,2013-02-02 20:48:00,
2013-02-02 15:54:00,26.6,12.2,30.19,ESE,122,2.0,14.0,54,0.00,,,0.00,Wunderground v.1.15,2013-02-02 20:54:00,
2013-02-02 16:18:00,25.8,15.3,30.19,ESE,122,2.0,12.0,64,0.00,,,0.00,Wunderground v.1.15,2013-02-02 21:18:00,
2013-02-02 16:28:00,25.8,17.0,30.19,ESE,122,1.0,1.0,69,0.00,,,0.00,Wunderground v.1.15,2013-02-02 21:28:00,
2013-02-02 16:34:00,25.7,17.6,30.19,ESE,122,0.0,12.0,71,0.00,,,0.00,Wunderground v.1.15,2013-02-02 21:34:00,
2013-02-02 16:43:00,25.4,18.3,30.19,ESE,122,1.0,12.0,74,0.00,,,0.00,Wunderground v.1.15,2013-02-02 21:43:00,
2013-02-02 17:49:00,25.0,21.1,30.18,ESE,122,0.0,12.0,85,0.00,,,0.00,Wunderground v.1.15,2013-02-02 22:49:00,
2013-02-02 17:58:00,25.0,21.4,30.18,ESE,122,0.0,6.0,86,0.00,,,0.00,Wunderground v.1.15,2013-02-02 22:58:00,
2013-02-02 18:09:00,25.0,21.7,30.18,ESE,122,1.0,6.0,87,0.00,,,0.00,Wunderground v.1.15,2013-02-02 23:09:00,
2013-02-02 18:39:00,24.8,22.3,30.18,ESE,122,2.0,6.0,90,0.00,,,0.00,Wunderground v.1.15,2013-02-02 23:39:00,
2013-02-02 19:14:00,24.7,22.7,30.18,ESE,122,1.0,1.0,92,0.00,,,0.00,Wunderground v.1.15,2013-02-03 00:14:00,
2013-02-02 19:24:00,24.7,22.7,30.18,ESE,122,0.0,5.0,92,0.00,,,0.00,Wunderground v.1.15,2013-02-03 00:24:00,
2013-02-02 19:34:00,24.7,22.7,30.18,ESE,122,0.0,5.0,92,0.00,,,0.00,Wunderground v.1.15,2013-02-03 00:34:00,
2013-02-02 19:49:00,24.7,22.7,30.18,ESE,122,0.0,5.0,92,0.00,,,0.00,Wunderground v.1.15,2013-02-03 00:49:00,
2013-02-02 19:59:00,24.8,22.8,30.18,ESE,122,0.0,5.0,92,0.00,,,0.00,Wunderground v.1.15,2013-02-03 00:59:00,
2013-02-02 20:09:00,25.0,23.0,30.17,ESE,122,0.0,5.0,92,0.00,,,0.00,Wunderground v.1.15,2013-02-03 01:09:00,
2013-02-02 20:19:00,25.0,23.0,30.17,ESE,122,0.0,5.0,92,0.00,,,0.00,Wunderground v.1.15,2013-02-03 01:19:00,
2013-02-02 20:24:00,25.0,23.0,30.17,ESE,122,0.0,5.0,92,0.00,,,0.00,Wunderground v.1.15,2013-02-03 01:24:00,
2013-02-02 20:34:00,25.1,23.1,30.17,ESE,122,1.0,5.0,92,0.00,,,0.00,Wunderground v.1.15,2013-02-03 01:34:00,
2013-02-02 20:44:00,25.4,22.6,30.17,ESE,122,2.0,2.0,89,0.00,,,0.00,Wunderground v.1.15,2013-02-03 01:44:00,
2013-02-02 20:49:00,25.4,22.3,30.17,NNW,342,3.0,7.0,88,0.00,,,0.00,Wunderground v.1.15,2013-02-03 01:49:00,
2013-02-02 20:59:00,25.6,21.4,30.17,NNW,340,5.0,11.0,84,0.00,,,0.00,Wunderground v.1.15,2013-02-03 01:59:00,
2013-02-02 21:09:00,25.4,21.0,30.16,NNW,331,6.0,6.0,83,0.00,,,0.00,Wunderground v.1.15,2013-02-03 02:09:00,
2013-02-02 21:24:00,25.1,20.4,30.15,NNW,330,6.0,6.0,82,0.00,,,0.00,Wunderground v.1.15,2013-02-03 02:24:00,
2013-02-02 21:34:00,25.0,19.7,30.15,WNW,300,6.0,6.0,80,0.00,,,0.00,Wunderground v.1.15,2013-02-03 02:34:00,
2013-02-02 21:39:00,25.0,19.7,30.15,NW,321,6.0,14.0,80,0.00,,,0.00,Wunderground v.1.15,2013-02-03 02:39:00,
2013-02-02 21:49:00,24.5,18.9,30.15,NW,321,5.0,11.0,79,0.00,,,0.00,Wunderground v.1.15,2013-02-03 02:49:00,
2013-02-02 21:59:00,24.4,18.8,30.15,NW,321,5.0,5.0,79,0.00,,,0.00,Wunderground v.1.15,2013-02-03 02:59:00,
2013-02-02 22:09:00,24.1,18.5,30.15,NW,321,4.0,4.0,79,0.00,,,0.00,Wunderground v.1.15,2013-02-03 03:09:00,
2013-02-02 22:14:00,24.1,18.8,30.15,NW,317,4.0,6.0,80,0.00,,,0.00,Wunderground v.1.15,2013-02-03 03:14:00,
2013-02-02 22:24:00,24.1,18.5,30.14,NW,317,5.0,5.0,79,0.00,,,0.00,Wunderground v.1.15,2013-02-03 03:24:00,
2013-02-02 22:34:00,23.9,18.3,30.14,NW,317,5.0,18.0,79,0.00,,,0.00,Wunderground v.1.15,2013-02-03 03:34:00,
2013-02-02 22:39:00,24.1,18.2,30.14,NW,317,5.0,18.0,78,0.00,,,0.00,Wunderground v.1.15,2013-02-03 03:39:00,
2013-02-02 22:49:00,23.8,18.2,30.14,NW,317,5.0,5.0,79,0.00,,,0.00,Wunderground v.1.15,2013-02-03 03:49:00,
2013-02-02 22:59:00,23.8,17.9,30.14,NW,317,5.0,5.0,78,0.00,,,0.00,Wunderground v.1.15,2013-02-03 03:59:00,
2013-02-02 23:09:00,23.2,17.9,30.14,NW,317,3.0,13.0,80,0.00,,,0.00,Wunderground v.1.15,2013-02-03 04:09:00,
2013-02-02 23:19:00,23.8,18.5,30.14,NW,317,4.0,4.0,80,0.00,,,0.00,Wunderground v.1.15,2013-02-03 04:19:00,
2013-02-02 23:24:00,24.1,18.5,30.14,NW,317,4.0,13.0,79,0.00,,,0.00,Wunderground v.1.15,2013-02-03 04:24:00,
2013-02-02 23:34:00,24.1,18.5,30.14,NW,317,4.0,13.0,79,0.00,,,0.00,Wunderground v.1.15,2013-02-03 04:34:00,
2013-02-02 23:44:00,24.1,18.5,30.14,NW,317,4.0,13.0,79,0.00,,,0.00,Wunderground v.1.15,2013-02-03 04:44:00,
2013-02-02 23:49:00,24.1,18.5,30.14,NW,317,4.0,13.0,79,0.00,,,0.00,Wunderground v.1.15,2013-02-03 04:49:00,
2013-02-02 23:59:00,24.7,18.5,30.14,NW,317,4.0,11.0,77,0.00,,,0.00,Wunderground v.1.15,2013-02-03 04:59:00,